This is the latest recevied weather packets stored in our database for station/object BAGASKAR. If no packets are shown the sender has not sent any weather packets the latest 1 day(s).
| Time | Temp. | Humidity | Pressure | Rain* | Wind** | Luminosity | Snow |
|---|---|---|---|---|---|---|---|
| 1778096843 | 5° C | 100% | 1014.2 hPa | - | - | - | - |
| 1778095643 | 5° C | 100% | 1014.2 hPa | - | - | - | - |
| 1778094443 | 5.56° C | 98% | 1014.2 hPa | - | - | - | - |
| 1778092044 | 6.11° C | 95% | 1014 hPa | - | - | - | - |
| 1778090843 | 6.67° C | 92% | 1014.1 hPa | - | - | - | - |
| 1778089643 | 6.67° C | 83% | 1014.1 hPa | - | - | - | - |
| 1778088442 | 7.22° C | 77% | 1014.1 hPa | - | - | - | - |
| 1778086042 | 8.33° C | 69% | 1014 hPa | - | - | - | - |
| 1778072841 | 8.33° C | 61% | 1014.3 hPa | - | - | - | - |
| 1778069241 | 8.33° C | 65% | 1014.5 hPa | - | - | - | - |
| 1778068042 | 8.89° C | 62% | 1014.4 hPa | - | - | - | - |
| 1778064442 | 7.78° C | 81% | 1014.4 hPa | - | - | - | - |
| 1778063242 | 7.78° C | 80% | 1014.3 hPa | - | - | - | - |
| 1778060843 | 7.78° C | 85% | 1014.1 hPa | - | - | - | - |
| 1778059642 | 8.33° C | 76% | 1013.7 hPa | - | - | - | - |
| 1778057242 | 9.44° C | 70% | 1013.6 hPa | - | - | - | - |
| 1778056042 | 9.44° C | 76% | 1013.5 hPa | - | - | - | - |
| 1778054842 | 8.33° C | 81% | 1013.4 hPa | - | - | - | - |
| 1778053642 | 7.22° C | 89% | 1013.3 hPa | - | - | - | - |
| 1778052442 | 6.67° C | 86% | 1013.2 hPa | - | - | - | - |
| 1778051242 | 7.78° C | 65% | 1013.1 hPa | - | - | - | - |
| 1778050042 | 7.78° C | 62% | 1013 hPa | - | - | - | - |
| 1778048842 | 7.22° C | 66% | 1012.9 hPa | - | - | - | - |
| 1778045242 | 5.56° C | 72% | 1012.4 hPa | - | - | - | - |
| 1778042841 | 5° C | 82% | 1011.9 hPa | - | - | - | - |
* Rain since midnight (hover to see other rain measurements)
** Current wind speed in m/s (hover to see current wind gust speed)